Miami, FL

11:20 PM EST on February 06, 2016 (GMT -0500)
JA Richmond West | | Change Station
CLOSE
Current Station
Personal Weather Station
Location: Miami, FL
Elevation: 7 ft
Nearby Weather Stations

Elev 7 ft 25.61 °N, 80.43 °W | Updated 16 seconds ago

Light Rain
Light Rain
61.9 °F
Feels Like 61.9 °F
N
5.8
Wind Variable Wind from WNW
Gusts 5.8 mph

Today
High -- | Low -- °F
--% Chance of Precip.
Yesterday
High -- | Low -- °F
Precip. -- in
Pressure 30.03 in
Visibility 10.0 miles
Clouds Few 700 ft
Overcast 3000 ft
Dew Point 59 °F
Humidity 89%
Rainfall in
Snow Depth Not available.
7:02 AM 6:08 PM
Waning Crescent, 3% visible
SPECI KTMB 070405Z 31010KT 10SM -RA FEW007 OVC030 16/16 A3003 RMK AO2 P0001 T01610161
Pressure 30.03 in
Visibility 10.0 miles
Clouds Few 700 ft
Overcast 3000 ft
Dew Point 59 °F
Humidity 89%
Rainfall in
Snow Depth Not available.
7:02 AM 6:08 PM
Waning Crescent, 3% visible
SPECI KTMB 070405Z 31010KT 10SM -RA FEW007 OVC030 16/16 A3003 RMK AO2 P0001 T01610161

10-Day Weather Forecast

Almanac

Astronomy

Feb. 06, 2016 Rise Set
Actual Time
Civil Twilight
Nautical Twilight
Astronomical Twilight
Moon
Length of Visible Light
Length of Day
Tomorrow will be .
, % of the Moon is Illuminated

Today's Extremes

State Highs State Lows

Community

WunderPhotos

Upload Photos

1,891,155 photos uploaded!

WunderBlog® & News

Nearby

Air Quality

  Air Quality AQ Index Pollutant
Not available.

Snow Depth

Station Depth Elevation

Earthquake Activity

City Distance Mag. Time & Date
Minimum magnitude displayed is 2.5.

Coastal Water Temperatures

Place Temperature

Stations

Nearby Weather Stations

Station Location Temp. Windchill Dew Point Humidity Wind Precip. Elev Updated Type
                   

Watches & Warnings

There are currently no watches in effect.